createdAt,value
2019-05-26T00:00:47.847Z,1009.42
2019-05-26T00:01:47.843Z,1009.44
2019-05-26T00:02:47.818Z,1009.46
2019-05-26T00:03:47.817Z,1009.49
2019-05-26T00:04:47.802Z,1009.46
2019-05-26T00:05:47.793Z,1009.43
2019-05-26T00:06:47.784Z,1009.38
2019-05-26T00:07:47.779Z,1009.43
2019-05-26T00:08:47.754Z,1009.44
2019-05-26T00:09:47.752Z,1009.42
2019-05-26T00:10:47.736Z,1009.43
2019-05-26T00:11:47.723Z,1009.43
2019-05-26T00:12:47.720Z,1009.38
2019-05-26T00:13:47.697Z,1009.38
2019-05-26T00:14:47.691Z,1009.38
2019-05-26T00:15:47.678Z,1009.44
2019-05-26T00:16:47.670Z,1009.34
2019-05-26T00:17:47.660Z,1009.36
2019-05-26T00:18:47.647Z,1009.33
2019-05-26T00:19:47.629Z,1009.29
2019-05-26T00:20:47.636Z,1009.32
2019-05-26T00:21:47.616Z,1009.33
2019-05-26T00:22:47.604Z,1009.33
2019-05-26T00:23:47.602Z,1009.34
2019-05-26T00:24:47.574Z,1009.35
2019-05-26T00:25:47.565Z,1009.30
2019-05-26T00:26:47.563Z,1009.26
2019-05-26T00:27:47.542Z,1009.31
2019-05-26T00:28:47.568Z,1009.28
2019-05-26T00:29:47.526Z,1009.28
2019-05-26T00:30:47.512Z,1009.27
2019-05-26T00:31:47.507Z,1009.28
2019-05-26T00:32:47.487Z,1009.26
2019-05-26T00:33:47.476Z,1009.27
2019-05-26T00:34:47.470Z,1009.22
2019-05-26T00:35:47.461Z,1009.27
2019-05-26T00:36:47.449Z,1009.28
2019-05-26T00:37:49.814Z,1009.33
2019-05-26T00:38:47.422Z,1009.28
2019-05-26T00:39:47.415Z,1009.27
2019-05-26T00:40:47.403Z,1009.21
2019-05-26T00:41:47.388Z,1009.26
2019-05-26T00:42:47.378Z,1009.20
2019-05-26T00:43:47.364Z,1009.22
2019-05-26T00:44:47.350Z,1009.17
2019-05-26T00:45:47.354Z,1009.15
2019-05-26T00:46:47.345Z,1009.16
2019-05-26T00:47:47.328Z,1009.16
2019-05-26T00:48:47.312Z,1009.15
2019-05-26T00:49:47.305Z,1009.10
2019-05-26T00:50:47.289Z,1009.09
2019-05-26T00:51:47.306Z,1009.06
2019-05-26T00:52:47.274Z,1009.09
2019-05-26T00:53:47.261Z,1009.19
2019-05-26T00:54:47.250Z,1009.09
2019-05-26T00:55:47.236Z,1009.09
2019-05-26T00:56:47.221Z,1009.15
2019-05-26T00:57:47.221Z,1009.13
2019-05-26T00:58:47.202Z,1009.17
2019-05-26T00:59:47.198Z,1009.08
2019-05-26T01:00:47.187Z,1009.10
2019-05-26T01:01:47.170Z,1009.08
2019-05-26T01:02:47.166Z,1009.12
2019-05-26T01:03:47.158Z,1009.05
2019-05-26T01:04:47.137Z,1009.08
2019-05-26T01:05:47.136Z,1009.06
2019-05-26T01:06:47.108Z,1009.07
2019-05-26T01:07:47.149Z,1009.14
2019-05-26T01:08:47.090Z,1009.09
2019-05-26T01:09:47.088Z,1009.09
2019-05-26T01:10:47.066Z,1009.09
2019-05-26T01:11:47.068Z,1009.04
2019-05-26T01:12:47.046Z,1009.06
2019-05-26T01:13:47.033Z,1009.10
2019-05-26T01:14:47.036Z,1009.06
2019-05-26T01:15:47.027Z,1009.00
2019-05-26T01:16:47.014Z,1008.96
2019-05-26T01:17:47.009Z,1009.02
2019-05-26T01:18:46.981Z,1009.00
2019-05-26T01:19:46.971Z,1009.01
2019-05-26T01:20:46.963Z,1009.04
2019-05-26T01:21:46.942Z,1009.00
2019-05-26T01:22:46.968Z,1008.97
2019-05-26T01:23:46.924Z,1009.03
2019-05-26T01:24:46.910Z,1008.98
2019-05-26T01:25:46.906Z,1008.99
2019-05-26T01:26:46.900Z,1009.05
2019-05-26T01:27:46.911Z,1009.01
2019-05-26T01:28:46.894Z,1009.04
2019-05-26T01:29:46.858Z,1009.08
2019-05-26T01:30:46.842Z,1009.08
2019-05-26T01:31:46.835Z,1009.11
2019-05-26T01:32:46.838Z,1009.09
2019-05-26T01:33:46.830Z,1009.05
2019-05-26T01:34:46.794Z,1009.04
2019-05-26T01:35:46.791Z,1009.13
2019-05-26T01:36:46.791Z,1009.06
2019-05-26T01:37:46.772Z,1009.10
2019-05-26T01:38:46.784Z,1009.13
2019-05-26T01:39:46.785Z,1009.11
2019-05-26T01:40:46.738Z,1009.08
2019-05-26T01:41:46.720Z,1009.10
2019-05-26T01:42:46.709Z,1009.15
2019-05-26T01:43:46.711Z,1009.12
2019-05-26T01:44:46.697Z,1009.17
2019-05-26T01:45:46.692Z,1009.14
2019-05-26T01:46:46.668Z,1009.03
2019-05-26T01:47:46.659Z,1009.10
2019-05-26T01:48:46.651Z,1009.08
2019-05-26T01:49:46.651Z,1009.06
2019-05-26T01:50:46.623Z,1009.04
2019-05-26T01:51:46.608Z,1009.02
2019-05-26T01:52:46.625Z,1009.07
2019-05-26T01:53:46.596Z,1009.04
2019-05-26T01:54:46.589Z,1009.04
2019-05-26T01:55:46.576Z,1009.04
2019-05-26T01:56:46.561Z,1009.03
2019-05-26T01:57:46.541Z,1009.02
2019-05-26T01:58:46.534Z,1009.03
2019-05-26T01:59:46.517Z,1009.03
2019-05-26T02:00:46.527Z,1009.01
2019-05-26T02:01:46.520Z,1009.07
2019-05-26T02:02:46.526Z,1009.09
2019-05-26T02:03:46.479Z,1009.08
2019-05-26T02:04:46.472Z,1009.10
2019-05-26T02:05:46.456Z,1009.07
2019-05-26T02:06:46.463Z,1009.11
2019-05-26T02:07:46.442Z,1009.08
2019-05-26T02:08:46.420Z,1009.06
2019-05-26T02:09:46.413Z,1009.00
2019-05-26T02:10:46.406Z,1009.04
2019-05-26T02:11:46.393Z,1009.03
2019-05-26T02:12:46.392Z,1009.04
2019-05-26T02:13:46.371Z,1008.97
2019-05-26T02:14:46.353Z,1009.02
2019-05-26T02:15:46.340Z,1009.00
2019-05-26T02:16:46.333Z,1008.95
2019-05-26T02:17:46.339Z,1008.94
2019-05-26T02:18:46.321Z,1008.94
2019-05-26T02:19:46.309Z,1008.93
2019-05-26T02:20:46.287Z,1008.94
2019-05-26T02:21:46.275Z,1008.96
2019-05-26T02:22:46.267Z,1008.93
2019-05-26T02:23:46.267Z,1008.96
2019-05-26T02:24:46.262Z,1008.96
2019-05-26T02:25:46.231Z,1008.94
2019-05-26T02:26:46.221Z,1008.92
2019-05-26T02:27:46.211Z,1008.92
2019-05-26T02:28:46.198Z,1008.90
2019-05-26T02:29:46.183Z,1008.88
2019-05-26T02:30:46.187Z,1008.90
2019-05-26T02:31:46.165Z,1008.85
2019-05-26T02:32:46.154Z,1008.92
2019-05-26T02:33:46.150Z,1008.92
2019-05-26T02:34:46.142Z,1008.90
2019-05-26T02:35:46.140Z,1008.94
2019-05-26T02:36:46.130Z,1008.95
2019-05-26T02:37:46.099Z,1008.92
2019-05-26T02:39:00.909Z,1008.95
2019-05-26T02:39:47.079Z,1008.92
2019-05-26T02:40:46.074Z,1008.98
2019-05-26T02:41:46.059Z,1008.90
2019-05-26T02:42:46.049Z,1008.96
2019-05-26T02:43:46.037Z,1009.00
2019-05-26T02:44:46.029Z,1009.00
2019-05-26T02:45:46.020Z,1009.01
2019-05-26T02:46:46.009Z,1009.04
2019-05-26T02:47:45.996Z,1008.94
2019-05-26T02:48:45.969Z,1008.96
2019-05-26T02:49:45.969Z,1008.90
2019-05-26T02:50:45.956Z,1008.92
2019-05-26T02:51:45.959Z,1008.94
2019-05-26T02:52:45.939Z,1008.93
2019-05-26T02:53:45.931Z,1008.94
2019-05-26T02:54:45.913Z,1008.93
2019-05-26T02:55:45.892Z,1009.00
2019-05-26T02:56:45.884Z,1008.98
2019-05-26T02:57:45.889Z,1008.92
2019-05-26T02:58:45.871Z,1008.99
2019-05-26T02:59:45.860Z,1008.92
2019-05-26T03:00:45.871Z,1008.95
2019-05-26T03:02:02.453Z,1008.95
2019-05-26T03:02:46.818Z,1008.91
2019-05-26T03:03:45.836Z,1008.96
2019-05-26T03:04:45.812Z,1008.94
2019-05-26T03:05:45.815Z,1008.94
2019-05-26T03:06:45.772Z,1008.94
2019-05-26T03:07:45.774Z,1008.92
2019-05-26T03:08:45.777Z,1008.89
2019-05-26T03:09:45.757Z,1008.95
2019-05-26T03:10:45.872Z,1008.88
2019-05-26T03:11:45.720Z,1008.95
2019-05-26T03:12:45.713Z,1008.96
2019-05-26T03:13:45.701Z,1008.95
2019-05-26T03:14:45.699Z,1008.98
2019-05-26T03:15:45.688Z,1009.00
2019-05-26T03:16:45.659Z,1008.91
2019-05-26T03:17:45.650Z,1008.93
2019-05-26T03:18:45.643Z,1008.93
2019-05-26T03:19:45.676Z,1008.91
2019-05-26T03:20:45.637Z,1008.87
2019-05-26T03:21:45.626Z,1008.89
2019-05-26T03:22:45.606Z,1008.92
2019-05-26T03:23:45.588Z,1008.92
2019-05-26T03:24:45.573Z,1008.85
2019-05-26T03:25:45.570Z,1008.94
2019-05-26T03:26:45.563Z,1008.89
2019-05-26T03:27:45.553Z,1008.88
2019-05-26T03:28:45.559Z,1008.93
2019-05-26T03:29:45.522Z,1008.93
2019-05-26T03:30:45.524Z,1008.96
2019-05-26T03:31:45.512Z,1008.88
2019-05-26T03:32:45.495Z,1008.94
2019-05-26T03:33:45.474Z,1008.96
2019-05-26T03:34:45.468Z,1008.99
2019-05-26T03:35:45.488Z,1008.98
2019-05-26T03:36:45.444Z,1008.93
2019-05-26T03:37:45.443Z,1008.94
2019-05-26T03:38:45.429Z,1008.94
2019-05-26T03:39:46.537Z,1008.90
2019-05-26T03:40:45.401Z,1008.88
2019-05-26T03:41:45.380Z,1008.89
2019-05-26T03:42:45.381Z,1008.91
2019-05-26T03:43:45.367Z,1008.94
2019-05-26T03:44:45.362Z,1008.95
2019-05-26T03:45:45.347Z,1008.96
2019-05-26T03:46:45.338Z,1008.91
2019-05-26T03:47:45.318Z,1008.95
2019-05-26T03:48:45.307Z,1008.93
2019-05-26T03:49:45.304Z,1008.97
2019-05-26T03:50:45.286Z,1009.01
2019-05-26T03:51:45.275Z,1009.00
2019-05-26T03:52:45.275Z,1008.95
2019-05-26T03:53:45.259Z,1008.99
2019-05-26T03:54:45.253Z,1009.02
2019-05-26T03:55:45.236Z,1009.06
2019-05-26T03:56:45.233Z,1009.03
2019-05-26T03:57:45.260Z,1009.00
2019-05-26T03:58:45.196Z,1009.01
2019-05-26T03:59:45.190Z,1009.00
2019-05-26T04:00:45.175Z,1008.97
2019-05-26T04:01:45.169Z,1008.98
2019-05-26T04:02:45.150Z,1008.99
2019-05-26T04:03:45.148Z,1008.92
2019-05-26T04:04:45.128Z,1008.94
2019-05-26T04:05:45.126Z,1008.92
2019-05-26T04:06:45.124Z,1008.93
2019-05-26T04:07:45.102Z,1008.97
2019-05-26T04:08:45.081Z,1008.94
2019-05-26T04:10:03.152Z,1008.89
2019-05-26T04:10:46.068Z,1008.85
2019-05-26T04:11:45.045Z,1008.90
2019-05-26T04:12:45.036Z,1008.91
2019-05-26T04:13:45.023Z,1008.93
2019-05-26T04:14:45.013Z,1008.96
2019-05-26T04:15:45.024Z,1008.88
2019-05-26T04:16:45.000Z,1008.87
2019-05-26T04:17:45.021Z,1008.91
2019-05-26T04:18:44.963Z,1008.85
2019-05-26T04:19:44.960Z,1008.87
2019-05-26T04:20:45.949Z,1008.88
2019-05-26T04:21:44.932Z,1008.88
2019-05-26T04:22:44.933Z,1008.80
2019-05-26T04:23:44.919Z,1008.80
2019-05-26T04:24:44.910Z,1008.75
2019-05-26T04:25:44.893Z,1008.80
2019-05-26T04:26:44.885Z,1008.80
2019-05-26T04:27:44.874Z,1008.78
2019-05-26T04:28:44.871Z,1008.79
2019-05-26T04:29:44.864Z,1008.76
2019-05-26T04:30:44.850Z,1008.76
2019-05-26T04:31:44.831Z,1008.77
2019-05-26T04:32:44.868Z,1008.69
2019-05-26T04:33:44.816Z,1008.69
2019-05-26T04:34:44.818Z,1008.71
2019-05-26T04:35:44.788Z,1008.77
2019-05-26T04:36:44.769Z,1008.77
2019-05-26T04:37:44.774Z,1008.78
2019-05-26T04:38:44.754Z,1008.79
2019-05-26T04:39:44.750Z,1008.76
2019-05-26T04:40:44.734Z,1008.79
2019-05-26T04:41:44.723Z,1008.81
2019-05-26T04:42:44.711Z,1008.84
2019-05-26T04:43:44.732Z,1008.74
2019-05-26T04:44:44.684Z,1008.77
2019-05-26T04:45:44.690Z,1008.79
2019-05-26T04:46:44.671Z,1008.80
2019-05-26T04:47:44.657Z,1008.77
2019-05-26T04:48:44.643Z,1008.80
2019-05-26T04:49:44.641Z,1008.79
2019-05-26T04:50:44.620Z,1008.73
2019-05-26T04:51:44.608Z,1008.74
2019-05-26T04:53:04.795Z,1008.75
2019-05-26T04:53:45.602Z,1008.77
2019-05-26T04:54:44.580Z,1008.79
2019-05-26T04:55:44.566Z,1008.74
2019-05-26T04:56:44.552Z,1008.79
2019-05-26T04:57:44.543Z,1008.80
2019-05-26T04:58:44.525Z,1008.74
2019-05-26T04:59:44.522Z,1008.75
2019-05-26T05:00:44.509Z,1008.73
2019-05-26T05:01:44.497Z,1008.74
2019-05-26T05:02:44.499Z,1008.67
2019-05-26T05:03:44.480Z,1008.70
2019-05-26T05:04:44.461Z,1008.67
2019-05-26T05:05:44.472Z,1008.67
2019-05-26T05:06:44.476Z,1008.65
2019-05-26T05:07:44.430Z,1008.65
2019-05-26T05:08:44.422Z,1008.70
2019-05-26T05:09:44.408Z,1008.70
2019-05-26T05:10:44.394Z,1008.62
2019-05-26T05:11:44.389Z,1008.64
2019-05-26T05:12:44.370Z,1008.64
2019-05-26T05:13:44.372Z,1008.65
2019-05-26T05:14:44.366Z,1008.63
2019-05-26T05:15:44.361Z,1008.63
2019-05-26T05:16:44.338Z,1008.67
2019-05-26T05:17:44.334Z,1008.64
2019-05-26T05:18:44.308Z,1008.68
2019-05-26T05:19:44.383Z,1008.61
2019-05-26T05:20:44.289Z,1008.65
2019-05-26T05:21:44.271Z,1008.63
2019-05-26T05:22:44.263Z,1008.67
2019-05-26T05:23:44.269Z,1008.65
2019-05-26T05:24:44.240Z,1008.65
2019-05-26T05:25:44.271Z,1008.61
2019-05-26T05:26:44.213Z,1008.60
2019-05-26T05:27:44.203Z,1008.55
2019-05-26T05:28:44.195Z,1008.56
2019-05-26T05:29:44.187Z,1008.49
2019-05-26T05:30:44.180Z,1008.57
2019-05-26T05:31:44.159Z,1008.53
2019-05-26T05:32:44.147Z,1008.52
2019-05-26T05:33:44.142Z,1008.47
2019-05-26T05:34:44.129Z,1008.51
2019-05-26T05:35:44.113Z,1008.51
2019-05-26T05:36:44.120Z,1008.53
2019-05-26T05:37:44.100Z,1008.51
2019-05-26T05:38:44.082Z,1008.51
2019-05-26T05:39:44.073Z,1008.57
2019-05-26T05:40:58.358Z,1008.56
2019-05-26T05:41:45.044Z,1008.55
2019-05-26T05:42:44.036Z,1008.54
2019-05-26T05:43:44.022Z,1008.52
2019-05-26T05:44:44.069Z,1008.54
2019-05-26T05:45:44.003Z,1008.51
2019-05-26T05:46:44.023Z,1008.47
2019-05-26T05:47:43.998Z,1008.54
2019-05-26T05:48:43.985Z,1008.55
2019-05-26T05:49:43.961Z,1008.47
2019-05-26T05:50:43.945Z,1008.46
2019-05-26T05:51:43.942Z,1008.41
2019-05-26T05:52:43.946Z,1008.46
2019-05-26T05:53:43.936Z,1008.40
2019-05-26T05:54:43.904Z,1008.45
2019-05-26T05:55:43.889Z,1008.41
2019-05-26T05:56:43.878Z,1008.44
2019-05-26T05:57:43.878Z,1008.42
2019-05-26T05:58:43.870Z,1008.44
2019-05-26T05:59:43.877Z,1008.37
2019-05-26T06:00:43.843Z,1008.45
2019-05-26T06:01:43.871Z,1008.46
2019-05-26T06:02:43.819Z,1008.38
2019-05-26T06:03:43.804Z,1008.38
2019-05-26T06:04:43.802Z,1008.41
2019-05-26T06:05:43.782Z,1008.43
2019-05-26T06:06:43.768Z,1008.40
2019-05-26T06:07:43.762Z,1008.43
2019-05-26T06:08:43.746Z,1008.32
2019-05-26T06:09:43.740Z,1008.34
2019-05-26T06:10:43.723Z,1008.38
2019-05-26T06:11:43.724Z,1008.35
2019-05-26T06:12:43.701Z,1008.32
2019-05-26T06:13:43.696Z,1008.31
2019-05-26T06:14:43.684Z,1008.30
2019-05-26T06:15:43.681Z,1008.28
2019-05-26T06:16:43.681Z,1008.32
2019-05-26T06:17:43.645Z,1008.34
2019-05-26T06:18:43.642Z,1008.32
2019-05-26T06:19:43.623Z,1008.34
2019-05-26T06:20:43.617Z,1008.31
2019-05-26T06:21:43.612Z,1008.22
2019-05-26T06:22:43.593Z,1008.28
2019-05-26T06:23:43.577Z,1008.18
2019-05-26T06:24:43.569Z,1008.21
2019-05-26T06:25:43.558Z,1008.21
2019-05-26T06:26:43.554Z,1008.19
2019-05-26T06:27:43.530Z,1008.15
2019-05-26T06:28:43.524Z,1008.17
2019-05-26T06:29:57.945Z,1008.19
2019-05-26T06:30:44.504Z,1008.16
2019-05-26T06:31:43.579Z,1008.13
2019-05-26T06:32:43.485Z,1008.17
2019-05-26T06:33:43.483Z,1008.17
2019-05-26T06:34:43.453Z,1008.19
2019-05-26T06:35:43.443Z,1008.13
2019-05-26T06:36:43.433Z,1008.21
2019-05-26T06:37:43.429Z,1008.15
2019-05-26T06:38:43.415Z,1008.16
2019-05-26T06:39:43.391Z,1008.23
2019-05-26T06:40:43.383Z,1008.20
2019-05-26T06:41:43.406Z,1008.18
2019-05-26T06:42:43.386Z,1008.26
2019-05-26T06:43:43.359Z,1008.16
2019-05-26T06:44:53.089Z,1008.13
2019-05-26T06:45:44.326Z,1008.17
2019-05-26T06:46:43.315Z,1008.28
2019-05-26T06:47:43.306Z,1008.22
2019-05-26T06:48:43.302Z,1008.22
2019-05-26T06:49:43.291Z,1008.16
2019-05-26T06:50:43.275Z,1008.15
2019-05-26T06:51:43.318Z,1008.11
2019-05-26T06:52:43.245Z,1008.19
2019-05-26T06:53:43.253Z,1008.13
2019-05-26T06:54:43.231Z,1008.13
2019-05-26T06:55:43.223Z,1008.19
2019-05-26T06:56:43.227Z,1008.19
2019-05-26T06:57:43.198Z,1008.11
2019-05-26T06:58:43.178Z,1008.16
2019-05-26T06:59:43.168Z,1008.13
2019-05-26T07:00:43.173Z,1008.11
2019-05-26T07:01:43.155Z,1008.12
2019-05-26T07:02:43.137Z,1008.13
2019-05-26T07:03:43.125Z,1008.15
2019-05-26T07:04:43.121Z,1008.06
2019-05-26T07:05:43.104Z,1008.19
2019-05-26T07:06:43.103Z,1008.14
2019-05-26T07:07:43.092Z,1008.09
2019-05-26T07:08:43.071Z,1008.11
2019-05-26T07:09:43.067Z,1008.11
2019-05-26T07:10:43.062Z,1008.04
2019-05-26T07:11:54.309Z,1008.08
2019-05-26T07:12:44.029Z,1008.08
2019-05-26T07:13:43.011Z,1008.02
2019-05-26T07:14:43.007Z,1008.05
2019-05-26T07:15:42.990Z,1008.03
2019-05-26T07:16:42.983Z,1008.00
2019-05-26T07:17:42.979Z,1007.97
2019-05-26T07:18:42.976Z,1008.04
2019-05-26T07:19:42.949Z,1007.93
2019-05-26T07:20:42.939Z,1007.94
2019-05-26T07:21:42.923Z,1007.97
2019-05-26T07:22:42.919Z,1007.96
2019-05-26T07:23:42.911Z,1007.97
2019-05-26T07:24:42.899Z,1007.94
2019-05-26T07:25:42.886Z,1007.98
2019-05-26T07:26:42.870Z,1007.93
2019-05-26T07:27:42.865Z,1007.90
2019-05-26T07:28:42.845Z,1007.85
2019-05-26T07:29:42.844Z,1007.87
2019-05-26T07:30:42.838Z,1007.88
2019-05-26T07:31:42.825Z,1007.84
2019-05-26T07:32:42.806Z,1007.85
2019-05-26T07:33:42.791Z,1007.87
2019-05-26T07:34:42.779Z,1007.78
2019-05-26T07:35:42.777Z,1007.83
2019-05-26T07:36:42.756Z,1007.86
2019-05-26T07:37:42.759Z,1007.85
2019-05-26T07:38:42.739Z,1007.82
2019-05-26T07:39:42.724Z,1007.87
2019-05-26T07:40:42.730Z,1007.79
2019-05-26T07:41:42.706Z,1007.82
2019-05-26T07:42:42.698Z,1007.78
2019-05-26T07:43:42.701Z,1007.79
2019-05-26T07:44:42.668Z,1007.72
2019-05-26T07:45:42.660Z,1007.77
2019-05-26T07:46:42.650Z,1007.79
2019-05-26T07:47:42.637Z,1007.71
2019-05-26T07:48:42.633Z,1007.73
2019-05-26T07:49:42.619Z,1007.80
2019-05-26T07:50:42.662Z,1007.76
2019-05-26T07:51:42.598Z,1007.75
2019-05-26T07:52:42.649Z,1007.76
2019-05-26T07:53:42.618Z,1007.76
2019-05-26T07:54:42.559Z,1007.85
2019-05-26T07:55:42.547Z,1007.75
2019-05-26T07:56:42.539Z,1007.80
2019-05-26T07:57:42.533Z,1007.82
2019-05-26T07:58:42.510Z,1007.84
2019-05-26T07:59:42.504Z,1007.72
2019-05-26T08:00:42.501Z,1007.79
2019-05-26T08:01:42.478Z,1007.78
2019-05-26T08:02:42.475Z,1007.77
2019-05-26T08:03:42.454Z,1007.80
2019-05-26T08:04:42.448Z,1007.76
2019-05-26T08:05:42.435Z,1007.69
2019-05-26T08:06:42.420Z,1007.73
2019-05-26T08:07:42.441Z,1007.75
2019-05-26T08:08:42.417Z,1007.76
2019-05-26T08:09:42.393Z,1007.69
2019-05-26T08:10:42.392Z,1007.75
2019-05-26T08:11:42.387Z,1007.73
2019-05-26T08:12:42.361Z,1007.66
2019-05-26T08:13:42.343Z,1007.65
2019-05-26T08:14:42.330Z,1007.78
2019-05-26T08:15:42.376Z,1007.78
2019-05-26T08:16:42.309Z,1007.72
2019-05-26T08:17:42.304Z,1007.71
2019-05-26T08:18:42.281Z,1007.76
2019-05-26T08:19:42.283Z,1007.75
2019-05-26T08:20:42.298Z,1007.69
2019-05-26T08:21:42.252Z,1007.80
2019-05-26T08:22:42.239Z,1007.76
2019-05-26T08:23:42.278Z,1007.68
2019-05-26T08:24:42.215Z,1007.64
2019-05-26T08:25:42.275Z,1007.69
2019-05-26T08:26:42.194Z,1007.61
2019-05-26T08:27:42.195Z,1007.67
2019-05-26T08:28:42.168Z,1007.68
2019-05-26T08:29:42.158Z,1007.59
2019-05-26T08:30:42.170Z,1007.56
2019-05-26T08:31:42.129Z,1007.48
2019-05-26T08:32:42.130Z,1007.47
2019-05-26T08:33:42.121Z,1007.53
2019-05-26T08:34:42.099Z,1007.50
2019-05-26T08:35:42.109Z,1007.41
2019-05-26T08:36:42.101Z,1007.45
2019-05-26T08:37:42.075Z,1007.38
2019-05-26T08:38:42.067Z,1007.32
2019-05-26T08:39:42.050Z,1007.35
2019-05-26T08:40:42.055Z,1007.30
2019-05-26T08:41:42.032Z,1007.36
2019-05-26T08:42:44.535Z,1007.38
2019-05-26T08:43:42.007Z,1007.36
2019-05-26T08:44:41.989Z,1007.26
2019-05-26T08:45:41.977Z,1007.32
2019-05-26T08:46:41.964Z,1007.27
2019-05-26T08:47:41.966Z,1007.21
2019-05-26T08:48:41.942Z,1007.28
2019-05-26T08:49:41.929Z,1007.22
2019-05-26T08:50:41.930Z,1007.21
2019-05-26T08:51:41.913Z,1007.17
2019-05-26T08:52:41.900Z,1007.20
2019-05-26T08:53:41.893Z,1007.12
2019-05-26T08:54:41.875Z,1007.15
2019-05-26T08:55:41.866Z,1007.12
2019-05-26T08:56:41.854Z,1007.20
2019-05-26T08:57:41.845Z,1007.19
2019-05-26T08:58:41.827Z,1007.15
2019-05-26T08:59:41.813Z,1007.10
2019-05-26T09:00:41.822Z,1007.13
2019-05-26T09:01:41.793Z,1007.11
2019-05-26T09:02:41.851Z,1007.11
2019-05-26T09:03:41.819Z,1007.08
2019-05-26T09:04:41.768Z,1007.02
2019-05-26T09:05:41.751Z,1007.05
2019-05-26T09:06:41.750Z,1007.01
2019-05-26T09:07:41.744Z,1007.01
2019-05-26T09:08:41.720Z,1006.92
2019-05-26T09:09:41.706Z,1006.99
2019-05-26T09:10:41.704Z,1006.88
2019-05-26T09:11:41.748Z,1006.84
2019-05-26T09:12:41.680Z,1007.01
2019-05-26T09:13:41.693Z,1006.97
2019-05-26T09:14:41.668Z,1006.92
2019-05-26T09:15:41.652Z,1006.99
2019-05-26T09:16:41.643Z,1006.98
2019-05-26T09:17:41.651Z,1007.01
2019-05-26T09:18:41.614Z,1006.89
2019-05-26T09:19:41.613Z,1006.95
2019-05-26T09:20:41.591Z,1006.91
2019-05-26T09:21:41.583Z,1006.80
2019-05-26T09:22:41.574Z,1006.81
2019-05-26T09:23:41.557Z,1006.85
2019-05-26T09:24:41.571Z,1006.75
2019-05-26T09:25:41.535Z,1006.83
2019-05-26T09:26:41.520Z,1006.73
2019-05-26T09:27:41.516Z,1006.85
2019-05-26T09:28:41.503Z,1006.75
2019-05-26T09:29:41.500Z,1006.70
2019-05-26T09:30:41.503Z,1006.69
2019-05-26T09:31:41.465Z,1006.77
2019-05-26T09:32:41.457Z,1006.75
2019-05-26T09:33:41.451Z,1006.79
2019-05-26T09:34:41.516Z,1006.78
2019-05-26T09:35:41.431Z,1006.68
2019-05-26T09:36:41.421Z,1006.70
2019-05-26T09:37:41.403Z,1006.67
2019-05-26T09:38:41.397Z,1006.69
2019-05-26T09:39:41.402Z,1006.71
2019-05-26T09:40:41.416Z,1006.66
2019-05-26T09:41:41.352Z,1006.56
2019-05-26T09:42:41.361Z,1006.57
2019-05-26T09:43:41.330Z,1006.71
2019-05-26T09:44:41.390Z,1006.61
2019-05-26T09:45:41.310Z,1006.64
2019-05-26T09:46:41.303Z,1006.61
2019-05-26T09:47:41.296Z,1006.59
2019-05-26T09:48:41.329Z,1006.65
2019-05-26T09:49:41.263Z,1006.67
2019-05-26T09:50:41.254Z,1006.73
2019-05-26T09:51:41.264Z,1006.68
2019-05-26T09:52:41.234Z,1006.64
2019-05-26T09:53:41.223Z,1006.56
2019-05-26T09:54:41.231Z,1006.54
2019-05-26T09:55:41.211Z,1006.65
2019-05-26T09:56:41.189Z,1006.71
2019-05-26T09:57:41.170Z,1006.64
2019-05-26T09:58:41.158Z,1006.52
2019-05-26T09:59:41.163Z,1006.44
2019-05-26T10:00:41.147Z,1006.53
2019-05-26T10:01:41.141Z,1006.53
2019-05-26T10:02:41.127Z,1006.39
2019-05-26T10:03:41.114Z,1006.48
2019-05-26T10:04:41.861Z,1006.42
2019-05-26T10:05:41.113Z,1006.48
2019-05-26T10:06:41.078Z,1006.43
2019-05-26T10:07:41.136Z,1006.37
2019-05-26T10:08:41.066Z,1006.39
2019-05-26T10:09:41.042Z,1006.47
2019-05-26T10:10:41.027Z,1006.56
2019-05-26T10:11:41.041Z,1006.49
2019-05-26T10:12:41.009Z,1006.38
2019-05-26T10:13:40.998Z,1006.47
2019-05-26T10:14:40.979Z,1006.42
2019-05-26T10:15:40.968Z,1006.33
2019-05-26T10:16:40.972Z,1006.35
2019-05-26T10:17:40.954Z,1006.38
2019-05-26T10:18:40.939Z,1006.39
2019-05-26T10:19:40.954Z,1006.34
2019-05-26T10:20:40.996Z,1006.52
2019-05-26T10:21:40.915Z,1006.35
2019-05-26T10:22:40.904Z,1006.41
2019-05-26T10:23:40.883Z,1006.33
2019-05-26T10:24:40.886Z,1006.34
2019-05-26T10:25:40.857Z,1006.28
2019-05-26T10:26:40.855Z,1006.31
2019-05-26T10:27:40.838Z,1006.32
2019-05-26T10:28:40.854Z,1006.34
2019-05-26T10:29:40.819Z,1006.30
2019-05-26T10:30:40.839Z,1006.37
2019-05-26T10:31:40.793Z,1006.40
2019-05-26T10:32:40.773Z,1006.30
2019-05-26T10:33:40.781Z,1006.33
2019-05-26T10:34:40.764Z,1006.32
2019-05-26T10:35:40.762Z,1006.36
2019-05-26T10:36:40.733Z,1006.39
2019-05-26T10:37:40.716Z,1006.37
2019-05-26T10:38:40.712Z,1006.43
2019-05-26T10:39:40.706Z,1006.32
2019-05-26T10:40:40.696Z,1006.30
2019-05-26T10:41:40.681Z,1006.27
2019-05-26T10:42:40.671Z,1006.20
2019-05-26T10:43:47.271Z,1006.26
2019-05-26T10:44:41.650Z,1006.13
2019-05-26T10:45:40.634Z,1006.19
2019-05-26T10:46:40.625Z,1006.16
2019-05-26T10:47:40.611Z,1006.21
2019-05-26T10:48:40.608Z,1006.24
2019-05-26T10:49:40.597Z,1006.15
2019-05-26T10:50:40.594Z,1006.03
2019-05-26T10:51:40.576Z,1006.15
2019-05-26T10:52:40.560Z,1006.15
2019-05-26T10:53:40.549Z,1006.01
2019-05-26T10:54:40.533Z,1006.11
2019-05-26T10:55:40.568Z,1006.06
2019-05-26T10:56:40.518Z,1006.01
2019-05-26T10:57:40.528Z,1006.09
2019-05-26T10:58:40.494Z,1006.01
2019-05-26T10:59:40.490Z,1006.15
2019-05-26T11:00:40.470Z,1005.98
2019-05-26T11:01:40.456Z,1005.91
2019-05-26T11:02:40.453Z,1005.82
2019-05-26T11:03:40.445Z,1006.00
2019-05-26T11:04:40.449Z,1005.95
2019-05-26T11:05:40.413Z,1005.90
2019-05-26T11:06:40.404Z,1005.92
2019-05-26T11:07:40.394Z,1005.94
2019-05-26T11:08:40.397Z,1006.02
2019-05-26T11:09:40.382Z,1005.86
2019-05-26T11:10:40.356Z,1005.85
2019-05-26T11:11:40.350Z,1005.82
2019-05-26T11:12:40.337Z,1005.83
2019-05-26T11:13:40.898Z,1005.76
2019-05-26T11:14:40.323Z,1005.78
2019-05-26T11:15:40.317Z,1005.72
2019-05-26T11:16:40.294Z,1005.76
2019-05-26T11:17:40.285Z,1005.77
2019-05-26T11:18:40.276Z,1005.71
2019-05-26T11:19:40.262Z,1005.78
2019-05-26T11:20:40.252Z,1005.74
2019-05-26T11:21:40.244Z,1005.83
2019-05-26T11:22:40.229Z,1005.73
2019-05-26T11:23:40.219Z,1005.72
2019-05-26T11:24:40.208Z,1005.82
2019-05-26T11:25:40.201Z,1005.73
2019-05-26T11:26:40.188Z,1005.78
2019-05-26T11:27:40.188Z,1005.71
2019-05-26T11:28:40.193Z,1005.76
2019-05-26T11:29:40.149Z,1005.67
2019-05-26T11:30:40.139Z,1005.71
2019-05-26T11:31:40.126Z,1005.74
2019-05-26T11:32:40.127Z,1005.64
2019-05-26T11:33:40.117Z,1005.65
2019-05-26T11:34:40.095Z,1005.74
2019-05-26T11:35:40.085Z,1005.60
2019-05-26T11:36:40.083Z,1005.56
2019-05-26T11:37:40.062Z,1005.68
2019-05-26T11:38:40.054Z,1005.58
2019-05-26T11:39:40.036Z,1005.58
2019-05-26T11:40:40.027Z,1005.59
2019-05-26T11:41:40.020Z,1005.64
2019-05-26T11:42:40.009Z,1005.54
2019-05-26T11:43:40.000Z,1005.58
2019-05-26T11:44:39.988Z,1005.62
2019-05-26T11:45:39.984Z,1005.56
2019-05-26T11:46:39.955Z,1005.54
2019-05-26T11:47:39.959Z,1005.60
2019-05-26T11:48:39.942Z,1005.63
2019-05-26T11:49:39.926Z,1005.56
2019-05-26T11:50:39.916Z,1005.51
2019-05-26T11:51:39.910Z,1005.42
2019-05-26T11:52:39.891Z,1005.55
2019-05-26T11:53:39.881Z,1005.47
2019-05-26T11:54:39.876Z,1005.46
2019-05-26T11:55:39.859Z,1005.44
2019-05-26T11:56:39.848Z,1005.42
2019-05-26T11:57:39.841Z,1005.46
2019-05-26T11:58:39.826Z,1005.39
2019-05-26T11:59:39.814Z,1005.47
2019-05-26T12:00:39.832Z,1005.44
2019-05-26T12:01:39.800Z,1005.43
2019-05-26T12:02:39.779Z,1005.36
2019-05-26T12:03:39.766Z,1005.30
2019-05-26T12:04:39.763Z,1005.38
2019-05-26T12:05:39.754Z,1005.34